PER weather

Perth International Airport
Perth, Western Australia, Australia

Public forecast

Using degrees Celsius for public forecast. Weather courtesy of forecast.io.

METAR (pilot weather report)

Retrieved 2019/04/21 12:00 UTC (4 minutes ago):

YPPH 211200Z 20009KT CAVOK 15/09 Q1024 NOSIG

TAF (pilot weather forecast)

Retrieved 2019/04/21 12:00 UTC (4 minutes ago):

TAF YPPH 211053Z 2112/2218 20008KT CAVOK FM211600 06006KT CAVOK FM220400 35007KT CAVOK FM220800 23010KT CAVOK FM221300 15006KT CAVOK